»·PEaware :: UAL7 KSEA-KOAK

UAL7 :: KSEA-KOAK

FLIGHT INFORMATION

Flight Status: Arrived
Operator:
United Airlines
More flights by this operator :: More flights under this callsign
Pilot: Anonymous 16342 (16342)
Aircraft: Unknown
(B789)
More flights by this aircraft type
Origin: KSEA Seattle-Tacoma Intl
United States
Destination: KOAK Metro Oakland Intl
United States
More flights between these airports :: More routes between these airports
Route: +HAROB6 HISKU Q5 HUPTU DCT SPAMY WNDSR2
File this flight plan on PilotEdge
Remarks:
Altitude:
(Current/Filed)
390ft
Speed:
(Current/Filed)
477kts
Departed: 23-Sep-18 07:59 PM
Arrived: 23-Sep-18 09:28 PM
Distance/Time
Traveled:
584nm/1:29
Distance/Time
To Go:
Arrived

Flight Plot

Page will automatically refresh every two minutes.

Flight plan parsing failed; only flown route is shown


Map Options




Map Legend


Flown Route
Filed Route
Departure Airport
Arrival Airport
Navaid (VOR, NDB)
Fix

Horizontal Profiles

Position Reports

Time Latitude Longitude Heading Altitude Ground
Speed
23-Sep-18 19:51 47.441876 -122.301846 40 446ft 0kts
23-Sep-18 19:52 47.441876 -122.301846 40 446ft 0kts
23-Sep-18 19:53 47.441534 -122.302282 43 446ft 2kts
23-Sep-18 19:54 47.441441 -122.302410 42 446ft 0kts
23-Sep-18 19:55 47.441408 -122.302148 144 446ft 2kts
23-Sep-18 19:56 47.439988 -122.303595 262 446ft 10kts
23-Sep-18 19:57 47.439943 -122.304224 264 446ft 0kts
23-Sep-18 19:58 47.438792 -122.306427 186 446ft 23kts
23-Sep-18 19:59 47.438057 -122.309738 269 446ft 0kts
23-Sep-18 20:00 47.438057 -122.309745 269 446ft 0kts
23-Sep-18 20:01 47.459512 -122.310868 1 779ft 188kts
23-Sep-18 20:02 47.511456 -122.310627 359 5016ft 201kts
23-Sep-18 20:03 47.572874 -122.319546 322 8445ft 251kts
23-Sep-18 20:04 47.619122 -122.400084 275 11893ft 294kts
23-Sep-18 20:05 47.600447 -122.527463 225 14685ft 361kts
23-Sep-18 20:06 47.516618 -122.624868 230 17247ft 395kts
23-Sep-18 20:07 47.438851 -122.744846 231 20011ft 415kts
23-Sep-18 20:08 47.357051 -122.869040 232 22457ft 432kts
23-Sep-18 20:09 47.271795 -122.997950 233 24708ft 448kts
23-Sep-18 20:10 47.173100 -123.118374 222 26711ft 476kts
23-Sep-18 20:11 47.058832 -123.219173 199 29049ft 501kts
23-Sep-18 20:12 46.914978 -123.199701 169 30436ft 543kts
23-Sep-18 20:13 46.767601 -123.183272 179 33592ft 519kts
23-Sep-18 20:14 46.622869 -123.166772 179 35396ft 521kts
23-Sep-18 20:15 46.477842 -123.151092 179 36740ft 531kts
23-Sep-18 20:16 46.332860 -123.135389 179 38680ft 520kts
23-Sep-18 20:17 46.187273 -123.119714 179 39262ft 522kts
23-Sep-18 20:18 46.041729 -123.104216 179 39257ft 536kts
23-Sep-18 20:19 45.891430 -123.088213 178 39262ft 544kts
23-Sep-18 20:20 45.739510 -123.072136 178 39250ft 546kts
23-Sep-18 20:21 45.588480 -123.056212 178 39255ft 546kts
23-Sep-18 20:22 45.436962 -123.040345 178 39265ft 545kts
23-Sep-18 20:23 45.285640 -123.024628 178 39256ft 545kts
23-Sep-18 20:24 45.134732 -123.009006 178 39245ft 544kts
23-Sep-18 20:25 44.983527 -122.993400 178 39255ft 543kts
23-Sep-18 20:26 44.832959 -122.977978 178 39255ft 542kts
23-Sep-18 20:27 44.682933 -122.962728 177 39245ft 541kts
23-Sep-18 20:28 44.532555 -122.947487 178 39248ft 540kts
23-Sep-18 20:29 44.382835 -122.940510 181 39246ft 538kts
23-Sep-18 20:30 44.232888 -122.935885 180 39237ft 538kts
23-Sep-18 20:31 44.083537 -122.931356 180 39225ft 537kts
23-Sep-18 20:32 43.933996 -122.926851 180 39232ft 535kts
23-Sep-18 20:33 43.785617 -122.922319 180 39213ft 532kts
23-Sep-18 20:34 43.637455 -122.917883 180 39205ft 531kts
23-Sep-18 20:35 43.489970 -122.913454 180 39203ft 530kts
23-Sep-18 20:36 43.342795 -122.909064 180 39193ft 529kts
23-Sep-18 20:37 43.195693 -122.904726 179 39182ft 528kts
23-Sep-18 20:38 43.048218 -122.900330 179 39189ft 527kts
23-Sep-18 20:39 42.902114 -122.896017 179 39178ft 526kts
23-Sep-18 20:40 42.755591 -122.891720 179 39166ft 525kts
23-Sep-18 20:41 42.609944 -122.887536 179 39164ft 523kts
23-Sep-18 20:42 42.464033 -122.883276 179 39138ft 523kts
23-Sep-18 20:43 42.318834 -122.879117 179 39135ft 522kts
23-Sep-18 20:44 42.173786 -122.874951 179 39147ft 521kts
23-Sep-18 20:45 42.028966 -122.870899 179 39140ft 521kts
23-Sep-18 20:46 41.884577 -122.866739 178 39126ft 517kts
23-Sep-18 20:47 41.740892 -122.862709 178 39116ft 515kts
23-Sep-18 20:48 41.597738 -122.858691 178 39110ft 514kts
23-Sep-18 20:49 41.454566 -122.854690 178 39116ft 513kts
23-Sep-18 20:50 41.312059 -122.850093 178 39113ft 512kts
23-Sep-18 20:51 41.170017 -122.841447 177 39072ft 511kts
23-Sep-18 20:52 41.027946 -122.832961 177 39044ft 510kts
23-Sep-18 20:53 40.886424 -122.824564 177 39016ft 509kts
23-Sep-18 20:54 40.745203 -122.816252 177 38986ft 508kts
23-Sep-18 20:55 40.604152 -122.807948 177 38960ft 507kts
23-Sep-18 20:56 40.463051 -122.799690 177 38936ft 506kts
23-Sep-18 20:57 40.323105 -122.791520 177 38909ft 505kts
23-Sep-18 20:58 40.187960 -122.783654 177 38907ft 504kts
23-Sep-18 20:59 40.047434 -122.775548 177 38924ft 504kts
23-Sep-18 21:00 39.906666 -122.767415 178 37260ft 516kts
23-Sep-18 21:01 39.760925 -122.759060 176 34266ft 533kts
23-Sep-18 21:02 39.611767 -122.750536 177 31519ft 537kts
23-Sep-18 21:03 39.465550 -122.731698 159 29567ft 521kts
23-Sep-18 21:04 39.334940 -122.658741 159 27776ft 501kts
23-Sep-18 21:05 39.207006 -122.598359 166 26129ft 477kts
23-Sep-18 21:06 39.079953 -122.573864 176 23843ft 445kts
23-Sep-18 21:07 38.962737 -122.548960 170 22268ft 399kts
23-Sep-18 21:08 38.854368 -122.521754 171 21744ft 390kts
23-Sep-18 21:09 38.748498 -122.495346 171 19207ft 377kts
23-Sep-18 21:10 38.646674 -122.472970 175 16801ft 363kts
23-Sep-18 21:11 38.552940 -122.459052 175 16275ft 315kts
23-Sep-18 21:12 38.467564 -122.446055 175 15321ft 309kts
23-Sep-18 21:13 38.381986 -122.433097 174 13911ft 318kts
23-Sep-18 21:14 38.296135 -122.420060 174 12908ft 308kts
23-Sep-18 21:15 38.212325 -122.407328 174 11850ft 301kts
23-Sep-18 21:16 38.130126 -122.394703 174 10359ft 292kts
23-Sep-18 21:17 38.050259 -122.382481 174 8909ft 284kts
23-Sep-18 21:18 37.982317 -122.345153 138 7318ft 266kts
23-Sep-18 21:19 37.924906 -122.286830 144 5758ft 254kts
23-Sep-18 21:20 37.867510 -122.232203 144 5457ft 261kts
23-Sep-18 21:21 37.809309 -122.177042 144 5012ft 260kts
23-Sep-18 21:22 37.761648 -122.117334 127 4975ft 231kts
23-Sep-18 21:23 37.724651 -122.056414 129 4001ft 214kts
23-Sep-18 21:24 37.685346 -122.002246 170 3925ft 206kts
23-Sep-18 21:25 37.641607 -122.038908 229 2968ft 190kts
23-Sep-18 21:26 37.615045 -122.094219 281 2648ft 191kts
23-Sep-18 21:27 37.646497 -122.142481 319 1987ft 167kts
23-Sep-18 21:28 37.678161 -122.180017 310 1378ft 161kts
23-Sep-18 21:29 37.706706 -122.222012 305 33ft 137kts
23-Sep-18 21:30 37.719002 -122.240160 343 19ft 19kts
23-Sep-18 21:31 37.719762 -122.239298 127 19ft 8kts
23-Sep-18 21:32 37.716306 -122.233048 130 19ft 25kts
23-Sep-18 21:33 37.712627 -122.227419 129 19ft 18kts
23-Sep-18 21:34 37.713980 -122.222390 85 19ft 14kts
23-Sep-18 21:35 37.713454 -122.217616 128 19ft 17kts

Navigation Log

Ident Type
Flight plan parsing failed, navigation log unavailable